Time;durP1;ratioP1;P1;durP2;ratioP2;P2;SDS_P1;SDS_P2;PMS_P1;PMS_P2;Temp;Humidity;BMP_temperature;BMP_pressure;BME280_temperature;BME280_humidity;BME280_pressure;Samples;Min_cycle;Max_cycle;Signal;HPM_P1;HPM_P2
2022/09/09 00:00:22;;;;;;;;;;;;;;;19.75;60.01;101165.25;5116179;27;19919;-81
2022/09/09 00:03:10;;;;;;;;;;;;;;;19.70;60.06;101164.19;5134750;27;19911;-81
2022/09/09 00:05:59;;;;;;;;;;;;;;;19.69;60.26;101167.97;5120513;27;19912;-81
2022/09/09 00:08:27;;;;;;;;;;;;;;;19.61;60.22;101172.53;5120367;27;19960;-81
2022/09/09 00:10:54;;;;;;;;;;;;;;;19.60;60.10;101173.59;5133999;27;19917;-80
2022/09/09 00:13:24;;;;;;;;;;;;;;;19.56;60.18;101168.75;5115946;27;19911;-81
2022/09/09 00:16:12;;;;;;;;;;;;;;;19.52;60.39;101157.41;5115363;27;19918;-80
2022/09/09 00:18:50;;;;;;;;;;;;;;;19.50;60.73;101159.53;5115480;27;20287;-80
2022/09/09 00:21:15;;;;;;;;;;;;;;;19.51;60.66;101144.84;5133992;27;19911;-80
2022/09/09 00:23:44;;;;;;;;;;;;;;;19.49;60.58;101146.94;5115488;27;19911;-80
2022/09/09 00:26:13;;;;;;;;;;;;;;;19.49;60.37;101141.47;5133810;27;20021;-80
2022/09/09 00:28:58;;;;;;;;;;;;;;;19.46;60.44;101141.91;5134413;27;19959;-79
2022/09/09 00:31:25;;;;;;;;;;;;;;;19.42;60.60;101146.09;5115994;27;20326;-81
2022/09/09 00:33:50;;;;;;;;;;;;;;;19.40;60.71;101146.28;5115462;27;19919;-81
2022/09/09 00:36:18;;;;;;;;;;;;;;;19.42;60.73;101150.72;5115201;27;19919;-81
2022/09/09 00:38:51;;;;;;;;;;;;;;;19.36;60.54;101155.09;5133998;27;20453;-79
2022/09/09 00:41:22;;;;;;;;;;;;;;;19.31;60.79;101155.72;5115376;27;19911;-79
2022/09/09 00:43:54;;;;;;;;;;;;;;;19.27;60.98;101148.16;5115672;27;19911;-81
2022/09/09 00:46:32;;;;;;;;;;;;;;;19.30;61.00;101143.13;5133475;27;19918;-79
2022/09/09 00:49:00;;;;;;;;;;;;;;;19.14;61.32;101147.06;5133692;27;19911;-80
2022/09/09 00:51:25;;;;;;;;;;;;;;;19.14;61.03;101149.81;5133604;27;19911;-79
2022/09/09 00:54:03;;;;;;;;;;;;;;;19.11;61.45;101139.31;5133092;27;19915;-80
2022/09/09 00:56:35;;;;;;;;;;;;;;;18.95;61.83;101132.34;5115123;27;19915;-81
2022/09/09 00:59:05;;;;;;;;;;;;;;;19.01;61.85;101129.84;5115054;27;19918;-80
2022/09/09 01:01:31;;;;;;;;;;;;;;;19.04;61.42;101130.28;5114899;27;19911;-79
2022/09/09 01:03:59;;;;;;;;;;;;;;;18.97;61.86;101134.88;5133161;27;19960;-80
2022/09/09 01:06:31;;;;;;;;;;;;;;;18.97;61.83;101135.72;5115314;27;19950;-80
2022/09/09 01:09:12;;;;;;;;;;;;;;;18.96;61.87;101136.78;5114539;27;20402;-80
2022/09/09 01:11:43;;;;;;;;;;;;;;;18.96;62.01;101135.91;5133039;27;19915;-80
2022/09/09 01:14:25;;;;;;;;;;;;;;;18.88;61.90;101127.94;5132788;27;19907;-80
2022/09/09 01:16:51;;;;;;;;;;;;;;;18.89;62.18;101124.16;5115091;27;19923;-80
2022/09/09 01:19:20;;;;;;;;;;;;;;;18.84;62.05;101132.09;5114867;27;19918;-79
2022/09/09 01:21:50;;;;;;;;;;;;;;;18.81;62.36;101127.91;5114795;27;20424;-80
2022/09/09 01:24:21;;;;;;;;;;;;;;;18.74;62.36;101144.19;5114530;27;19907;-81
2022/09/09 01:26:47;;;;;;;;;;;;;;;18.71;62.55;101143.78;5133049;27;19919;-79
2022/09/09 01:29:13;;;;;;;;;;;;;;;18.68;62.51;101139.56;5132868;27;20115;-80
2022/09/09 01:31:55;;;;;;;;;;;;;;;18.69;62.50;101146.69;5132504;27;19915;-81
2022/09/09 01:34:20;;;;;;;;;;;;;;;18.61;62.53;101146.84;5136127;27;19911;-81
2022/09/09 01:36:47;;;;;;;;;;;;;;;18.61;62.72;101138.66;5142712;27;19949;-80
2022/09/09 01:39:13;;;;;;;;;;;;;;;18.58;63.15;101139.09;5139739;27;19934;-80
2022/09/09 01:41:38;;;;;;;;;;;;;;;18.62;62.93;101129.47;5132869;27;20391;-79
2022/09/09 01:44:03;;;;;;;;;;;;;;;18.53;63.17;101131.53;5132368;27;19911;-81
2022/09/09 01:46:29;;;;;;;;;;;;;;;18.51;63.69;101139.06;5132428;27;19911;-80
2022/09/09 01:48:54;;;;;;;;;;;;;;;18.47;63.68;101139.66;5114093;27;19917;-80
2022/09/09 01:51:19;;;;;;;;;;;;;;;18.45;63.68;101139.88;5114387;27;19915;-80
2022/09/09 01:53:45;;;;;;;;;;;;;;;18.47;63.94;101135.06;5132784;27;19911;-80
2022/09/09 01:56:16;;;;;;;;;;;;;;;18.44;63.87;101132.72;5113845;27;19926;-80
2022/09/09 01:58:54;;;;;;;;;;;;;;;18.47;63.86;101136.94;5113775;27;20349;-80
2022/09/09 02:01:31;;;;;;;;;;;;;;;18.44;64.44;101135.44;5132080;27;20428;-80
2022/09/09 02:03:57;;;;;;;;;;;;;;;18.44;64.36;101131.91;5131455;27;19919;-79
2022/09/09 02:06:35;;;;;;;;;;;;;;;18.40;64.48;101134.16;5113979;27;19911;-80
2022/09/09 02:09:01;;;;;;;;;;;;;;;18.44;64.63;101140.06;5132008;27;20047;-79
2022/09/09 02:11:27;;;;;;;;;;;;;;;18.33;64.95;101145.03;5096955;27;19976;-79
2022/09/09 02:14:21;;;;;;;;;;;;;;;18.29;65.16;101149.19;5132082;27;19919;-79
2022/09/09 02:16:50;;;;;;;;;;;;;;;18.39;64.82;101145.28;5109821;27;19915;-80
2022/09/09 02:19:23;;;;;;;;;;;;;;;18.37;64.95;101136.47;5113931;28;20027;-80
2022/09/09 02:21:48;;;;;;;;;;;;;;;18.27;65.59;101148.56;5114129;28;19911;-80
2022/09/09 02:24:14;;;;;;;;;;;;;;;18.27;65.33;101143.09;5113562;28;19919;-80
2022/09/09 02:26:40;;;;;;;;;;;;;;;18.26;65.42;101146.03;5113526;28;19923;-80
2022/09/09 02:29:07;;;;;;;;;;;;;;;18.27;65.33;101137.66;5113312;28;19911;-80
2022/09/09 02:31:35;;;;;;;;;;;;;;;18.28;65.27;101150.22;5131884;28;19911;-80
2022/09/09 02:34:00;;;;;;;;;;;;;;;18.31;65.49;101140.84;5113920;28;19907;-79
2022/09/09 02:36:26;;;;;;;;;;;;;;;18.27;65.59;101140.38;5113512;28;20352;-80
2022/09/09 02:38:53;;;;;;;;;;;;;;;18.28;65.48;101144.78;5132108;28;19915;-81
2022/09/09 02:41:37;;;;;;;;;;;;;;;18.24;65.90;101135.34;5132750;28;19907;-78
2022/09/09 02:44:05;;;;;;;;;;;;;;;18.27;65.87;101140.38;5115317;28;19946;-79
2022/09/09 02:46:31;;;;;;;;;;;;;;;18.17;66.44;101142.63;5132837;28;19921;-80
2022/09/09 02:49:01;;;;;;;;;;;;;;;18.16;66.21;101140.09;5131708;28;19925;-80
2022/09/09 02:51:30;;;;;;;;;;;;;;;18.17;66.21;101142.63;5132107;28;19972;-80
2022/09/09 02:54:09;;;;;;;;;;;;;;;18.16;66.25;101135.50;5131900;28;19918;-80
2022/09/09 02:56:35;;;;;;;;;;;;;;;18.14;66.33;101137.56;5113753;28;19988;-80
2022/09/09 02:59:03;;;;;;;;;;;;;;;18.16;66.85;101145.53;5131696;28;19965;-79
2022/09/09 03:01:28;;;;;;;;;;;;;;;18.12;66.50;101135.06;5132075;28;20005;-79
2022/09/09 03:03:54;;;;;;;;;;;;;;;18.11;66.73;101140.69;5113530;28;20077;-79
2022/09/09 03:06:20;;;;;;;;;;;;;;;18.03;67.08;101136.25;5131532;28;19968;-80
2022/09/09 03:08:45;;;;;;;;;;;;;;;18.08;66.82;101132.94;5132065;28;19925;-79
2022/09/09 03:11:10;;;;;;;;;;;;;;;17.98;67.37;101143.31;5096498;28;19915;-79
2022/09/09 03:13:37;;;;;;;;;;;;;;;17.99;67.79;101134.13;5131917;28;19915;-80
2022/09/09 03:16:03;;;;;;;;;;;;;;;18.00;67.49;101133.91;5135437;27;19911;-79
2022/09/09 03:18:29;;;;;;;;;;;;;;;17.96;67.72;101145.38;5135714;27;20445;-79
2022/09/09 03:20:54;;;;;;;;;;;;;;;17.99;67.66;101145.00;5135763;27;20019;-80
2022/09/09 03:23:21;;;;;;;;;;;;;;;17.95;67.61;101151.88;5135583;27;19907;-80
2022/09/09 03:25:48;;;;;;;;;;;;;;;18.01;67.77;101154.66;5135501;27;19972;-80
2022/09/09 03:28:13;;;;;;;;;;;;;;;18.00;67.75;101147.53;5136195;27;20271;-79
2022/09/09 03:30:38;;;;;;;;;;;;;;;17.99;67.76;101150.47;5135218;27;19911;-79
2022/09/09 03:33:04;;;;;;;;;;;;;;;17.98;67.75;101148.75;5135347;27;19918;-79
2022/09/09 03:35:32;;;;;;;;;;;;;;;18.00;67.92;101141.25;5135590;27;19994;-80
2022/09/09 03:37:57;;;;;;;;;;;;;;;18.01;67.99;101146.50;5135518;27;19915;-80
2022/09/09 03:40:22;;;;;;;;;;;;;;;18.05;67.95;101141.47;5135197;27;20010;-80
2022/09/09 03:42:48;;;;;;;;;;;;;;;18.05;68.00;101146.94;5135412;27;19960;-80
2022/09/09 03:45:13;;;;;;;;;;;;;;;17.99;68.26;101145.00;5135128;27;19912;-79
2022/09/09 03:47:39;;;;;;;;;;;;;;;17.99;68.46;101143.13;5117356;27;19940;-79
2022/09/09 03:50:08;;;;;;;;;;;;;;;17.91;68.54;101138.69;5135944;27;19911;-79
2022/09/09 03:52:34;;;;;;;;;;;;;;;17.98;68.26;101144.19;5100877;27;19911;-78
2022/09/09 03:55:01;;;;;;;;;;;;;;;18.05;68.00;101144.22;5135609;27;20065;-79
2022/09/09 03:57:26;;;;;;;;;;;;;;;18.04;68.00;101142.53;5135522;27;19920;-79
2022/09/09 03:59:51;;;;;;;;;;;;;;;18.01;68.35;101146.50;5134533;27;20567;-79
2022/09/09 04:02:17;;;;;;;;;;;;;;;18.05;68.02;101144.22;5135402;27;19911;-80
2022/09/09 04:04:42;;;;;;;;;;;;;;;18.08;68.11;101138.38;5134986;27;20302;-79
2022/09/09 04:07:07;;;;;;;;;;;;;;;18.10;68.09;101141.75;5134928;27;19946;-78
2022/09/09 04:09:33;;;;;;;;;;;;;;;18.09;68.10;101140.88;5134388;27;19915;-80
2022/09/09 04:11:58;;;;;;;;;;;;;;;18.06;68.39;101148.63;5116905;27;19918;-79
2022/09/09 04:14:27;;;;;;;;;;;;;;;18.19;67.85;101146.00;5135726;27;20003;-80
2022/09/09 04:16:53;;;;;;;;;;;;;;;18.19;67.92;101147.88;5135434;27;20382;-80
2022/09/09 04:19:18;;;;;;;;;;;;;;;18.21;67.94;101143.06;5134857;27;19915;-79
2022/09/09 04:21:44;;;;;;;;;;;;;;;18.27;67.71;101154.00;5135204;27;19911;-80
2022/09/09 04:24:09;;;;;;;;;;;;;;;18.20;68.14;101144.94;5134699;27;19911;-79
2022/09/09 04:26:36;;;;;;;;;;;;;;;18.20;68.26;101144.13;5134059;27;20033;-79
2022/09/09 04:29:01;;;;;;;;;;;;;;;18.28;67.98;101147.50;5134565;27;20014;-79
2022/09/09 04:31:26;;;;;;;;;;;;;;;18.34;67.95;101149.44;5134435;27;19998;-80
2022/09/09 04:33:52;;;;;;;;;;;;;;;18.31;68.30;101152.56;5134346;27;19911;-80
2022/09/09 04:36:20;;;;;;;;;;;;;;;18.42;67.93;101161.19;5134376;27;19911;-79
2022/09/09 04:38:45;;;;;;;;;;;;;;;18.49;67.85;101157.47;5134166;27;19911;-79
2022/09/09 04:41:11;;;;;;;;;;;;;;;18.53;67.99;101168.81;5098692;27;20012;-79
2022/09/09 04:43:37;;;;;;;;;;;;;;;18.48;68.23;101165.84;5134166;27;19937;-79
2022/09/09 04:46:02;;;;;;;;;;;;;;;18.53;68.18;101163.38;5115129;27;20004;-79
2022/09/09 04:48:28;;;;;;;;;;;;;;;18.66;67.75;101165.28;5134214;27;20002;-79
2022/09/09 04:50:56;;;;;;;;;;;;;;;18.77;67.44;101154.69;5133235;27;19998;-80
2022/09/09 04:53:22;;;;;;;;;;;;;;;18.90;67.41;101151.19;5133439;27;19911;-80
2022/09/09 04:55:47;;;;;;;;;;;;;;;18.96;67.44;101141.34;5133567;27;19911;-79
2022/09/09 04:58:13;;;;;;;;;;;;;;;19.09;67.07;101141.41;5133347;27;20073;-79
2022/09/09 05:00:38;;;;;;;;;;;;;;;19.22;66.82;101139.75;5115352;27;19919;-79
2022/09/09 05:03:08;;;;;;;;;;;;;;;19.30;66.49;101150.47;5133591;27;20464;-80
2022/09/09 05:05:34;;;;;;;;;;;;;;;19.38;66.61;101150.28;5133160;27;19915;-79
2022/09/09 05:08:05;;;;;;;;;;;;;;;19.49;66.25;101155.13;5133008;27;20299;-79
2022/09/09 05:10:31;;;;;;;;;;;;;;;19.66;65.66;101155.53;5133948;27;20000;-78
2022/09/09 05:12:56;;;;;;;;;;;;;;;19.77;65.39;101159.59;5116786;27;19918;-79
2022/09/09 05:15:22;;;;;;;;;;;;;;;19.81;65.38;101147.22;5133590;27;20271;-80
2022/09/09 05:17:47;;;;;;;;;;;;;;;20.00;65.00;101154.53;5133707;27;19937;-80
2022/09/09 05:20:12;;;;;;;;;;;;;;;20.13;64.40;101159.13;5133584;27;19968;-79
2022/09/09 05:22:38;;;;;;;;;;;;;;;20.33;63.97;101153.66;5132856;27;19911;-79
2022/09/09 05:25:03;;;;;;;;;;;;;;;20.81;63.83;101150.59;5132917;27;19915;-79
2022/09/09 05:27:31;;;;;;;;;;;;;;;21.32;63.15;101148.81;5133234;27;19942;-79
2022/09/09 05:29:57;;;;;;;;;;;;;;;21.80;60.39;101151.03;5133305;27;20406;-79
2022/09/09 05:32:22;;;;;;;;;;;;;;;22.25;60.17;101150.03;5132864;27;19933;-80
2022/09/09 05:34:48;;;;;;;;;;;;;;;22.72;58.25;101142.13;5133088;27;19908;-79
2022/09/09 05:37:13;;;;;;;;;;;;;;;23.11;56.55;101142.69;5132540;27;19912;-79
2022/09/09 05:39:38;;;;;;;;;;;;;;;23.43;55.17;101134.19;5132954;27;19911;-79
2022/09/09 05:42:04;;;;;;;;;;;;;;;23.54;54.99;101138.88;5132659;27;20290;-78
2022/09/09 05:44:29;;;;;;;;;;;;;;;23.86;54.40;101131.19;5132371;27;20258;-80
2022/09/09 05:46:55;;;;;;;;;;;;;;;24.31;53.63;101132.50;5132975;27;20011;-80
2022/09/09 05:49:21;;;;;;;;;;;;;;;24.61;52.19;101135.94;5134159;27;20010;-80
2022/09/09 05:51:47;;;;;;;;;;;;;;;24.97;51.88;101128.41;5133762;27;20131;-80
2022/09/09 05:54:15;;;;;;;;;;;;;;;25.11;51.36;101126.19;5132857;27;19911;-80
2022/09/09 05:56:40;;;;;;;;;;;;;;;25.35;50.57;101126.09;5132290;27;19958;-81
2022/09/09 05:59:06;;;;;;;;;;;;;;;25.44;49.98;101128.19;5113886;27;20311;-80
2022/09/09 06:01:32;;;;;;;;;;;;;;;25.71;49.73;101127.53;5132192;27;20291;-81
2022/09/09 06:03:57;;;;;;;;;;;;;;;25.72;49.49;101134.72;5131793;27;19945;-81
2022/09/09 06:06:25;;;;;;;;;;;;;;;25.79;49.69;101124.34;5132048;27;19919;-81
2022/09/09 06:08:51;;;;;;;;;;;;;;;25.97;49.46;101125.22;5132096;27;19915;-81
2022/09/09 06:11:19;;;;;;;;;;;;;;;25.93;49.85;101127.63;5132139;27;19922;-80
2022/09/09 06:13:45;;;;;;;;;;;;;;;25.96;49.75;101127.13;5113494;27;19925;-80
2022/09/09 06:16:11;;;;;;;;;;;;;;;26.13;49.98;101127.13;5131670;27;19911;-81
2022/09/09 06:18:37;;;;;;;;;;;;;;;26.03;49.94;101124.19;5131935;27;19918;-80
2022/09/09 06:21:06;;;;;;;;;;;;;;;26.31;49.86;101131.47;5131527;28;20433;-81
2022/09/09 06:23:32;;;;;;;;;;;;;;;26.27;50.38;101135.84;5115396;28;19911;-79
2022/09/09 06:26:07;;;;;;;;;;;;;;;26.33;50.21;101134.81;5131970;28;19917;-81
2022/09/09 06:28:33;;;;;;;;;;;;;;;26.62;49.41;101132.78;5131710;28;20324;-80
2022/09/09 06:30:59;;;;;;;;;;;;;;;26.86;49.09;101143.53;5131629;28;19911;-80
2022/09/09 06:33:24;;;;;;;;;;;;;;;26.70;49.56;101140.59;5132155;28;19931;-80
2022/09/09 06:35:53;;;;;;;;;;;;;;;26.72;49.14;101132.88;5131748;28;20298;-80
2022/09/09 06:38:18;;;;;;;;;;;;;;;26.67;49.60;101143.88;5131911;28;19912;-80
2022/09/09 06:40:50;;;;;;;;;;;;;;;26.94;49.37;101145.81;5131978;28;19917;-82
2022/09/09 06:43:16;;;;;;;;;;;;;;;27.10;48.09;101150.41;5133606;28;20030;-80
2022/09/09 06:45:42;;;;;;;;;;;;;;;26.98;49.06;101158.00;5131634;28;20320;-80
2022/09/09 06:48:08;;;;;;;;;;;;;;;27.52;48.14;101154.44;5131199;28;19938;-80
2022/09/09 06:50:34;;;;;;;;;;;;;;;27.75;46.93;101156.88;5135073;27;19911;-81
2022/09/09 06:52:59;;;;;;;;;;;;;;;27.90;46.65;101164.47;5135588;27;19912;-81
2022/09/09 06:55:25;;;;;;;;;;;;;;;27.76;47.15;101163.22;5135483;27;20306;-81
2022/09/09 06:57:51;;;;;;;;;;;;;;;27.84;47.08;101160.00;5136093;27;20055;-81
2022/09/09 07:00:17;;;;;;;;;;;;;;;27.83;47.24;101158.31;5135748;27;19938;-80
2022/09/09 07:02:42;;;;;;;;;;;;;;;27.52;48.10;101155.28;5135357;27;19929;-81
2022/09/09 07:05:08;;;;;;;;;;;;;;;27.82;47.43;101153.88;5135646;27;19922;-80
2022/09/09 07:07:33;;;;;;;;;;;;;;;28.04;47.05;101153.78;5135269;27;19911;-81
2022/09/09 07:09:59;;;;;;;;;;;;;;;27.99;47.25;101151.81;5135445;27;19911;-81
2022/09/09 07:12:24;;;;;;;;;;;;;;;28.01;47.43;101153.50;5135822;27;19911;-81
2022/09/09 07:14:49;;;;;;;;;;;;;;;27.96;47.30;101157.88;5134920;27;20383;-80
2022/09/09 07:17:14;;;;;;;;;;;;;;;28.24;46.54;101166.06;5135182;27;20407;-80
2022/09/09 07:19:40;;;;;;;;;;;;;;;28.38;46.47;101159.81;5135124;27;19915;-81
2022/09/09 07:22:06;;;;;;;;;;;;;;;28.32;46.57;101160.88;5134963;27;20375;-82
2022/09/09 07:24:31;;;;;;;;;;;;;;;28.89;45.22;101156.44;5136119;27;19911;-82
2022/09/09 07:26:57;;;;;;;;;;;;;;;28.92;45.39;101163.41;5138739;27;20312;-79
2022/09/09 07:29:22;;;;;;;;;;;;;;;28.98;45.05;101165.06;5137223;27;20338;-81
2022/09/09 07:31:48;;;;;;;;;;;;;;;28.02;47.51;101163.44;5135109;27;19919;-81
2022/09/09 07:34:13;;;;;;;;;;;;;;;29.05;45.50;101147.09;5116396;27;19914;-82
2022/09/09 07:36:39;;;;;;;;;;;;;;;28.91;45.53;101157.00;5134547;27;20366;-82
2022/09/09 07:39:05;;;;;;;;;;;;;;;29.64;44.37;101159.69;5134872;27;19911;-82
2022/09/09 07:41:37;;;;;;;;;;;;;;;29.27;44.78;101159.94;5134856;27;20428;-81
2022/09/09 07:44:06;;;;;;;;;;;;;;;29.40;44.31;101164.09;5116066;27;20085;-81
2022/09/09 07:46:31;;;;;;;;;;;;;;;29.53;43.62;101169.09;5115569;27;20350;-81
2022/09/09 07:48:58;;;;;;;;;;;;;;;29.21;43.91;101172.09;5134519;27;20097;-81
2022/09/09 07:51:27;;;;;;;;;;;;;;;29.31;44.28;101165.72;5134483;27;19912;-81
2022/09/09 07:53:57;;;;;;;;;;;;;;;30.54;41.95;101165.69;5134617;27;20324;-82
2022/09/09 07:56:23;;;;;;;;;;;;;;;30.71;40.25;101163.41;5134702;27;20329;-81
2022/09/09 07:58:48;;;;;;;;;;;;;;;30.76;39.96;101174.47;5115626;27;19915;-82
2022/09/09 08:01:18;;;;;;;;;;;;;;;31.51;38.56;101167.97;5114570;27;21769;-81
2022/09/09 08:03:44;;;;;;;;;;;;;;;31.96;37.09;101166.81;5116197;27;20434;-81
2022/09/09 08:06:09;;;;;;;;;;;;;;;31.55;37.44;101164.34;5134156;27;20002;-82
2022/09/09 08:08:35;;;;;;;;;;;;;;;32.56;35.78;101166.44;5134269;27;19911;-81
2022/09/09 08:11:04;;;;;;;;;;;;;;;33.06;35.62;101163.34;5134283;27;19918;-82
2022/09/09 08:13:31;;;;;;;;;;;;;;;31.93;37.54;101169.28;5115839;27;20307;-82
2022/09/09 08:16:03;;;;;;;;;;;;;;;32.54;31.13;101167.88;5116177;27;20016;-81
2022/09/09 08:18:28;;;;;;;;;;;;;;;31.88;32.80;101163.78;5134077;27;19912;-80
2022/09/09 08:20:53;;;;;;;;;;;;;;;32.40;31.54;101153.81;5116013;27;19911;-81
2022/09/09 08:23:19;;;;;;;;;;;;;;;33.44;32.16;101146.59;5115656;27;19911;-81
2022/09/09 08:25:45;;;;;;;;;;;;;;;34.09;28.74;101145.81;5134106;27;19912;-81
2022/09/09 08:28:10;;;;;;;;;;;;;;;34.81;29.20;101144.34;5133758;27;20044;-82
2022/09/09 08:30:37;;;;;;;;;;;;;;;36.03;28.84;101151.75;5133790;27;20006;-82
2022/09/09 08:33:02;;;;;;;;;;;;;;;35.21;30.56;101141.78;5133342;27;19975;-81
2022/09/09 08:35:32;;;;;;;;;;;;;;;36.14;29.44;101132.75;5133941;27;19911;-82
2022/09/09 08:37:57;;;;;;;;;;;;;;;34.95;31.45;101131.19;5133741;27;19915;-81
2022/09/09 08:40:25;;;;;;;;;;;;;;;34.39;31.99;101118.41;5098288;27;19919;-82
2022/09/09 08:42:51;;;;;;;;;;;;;;;35.72;30.96;101129.38;5134078;27;19975;-81
2022/09/09 08:45:28;;;;;;;;;;;;;;;37.09;28.75;101129.41;5134055;27;19959;-81
2022/09/09 08:47:53;;;;;;;;;;;;;;;36.86;28.67;101127.88;5115282;27;19987;-82
2022/09/09 08:50:19;;;;;;;;;;;;;;;36.18;29.70;101122.56;5133538;27;19919;-81
2022/09/09 08:52:52;;;;;;;;;;;;;;;35.42;31.30;101126.19;5133748;27;19968;-82
2022/09/09 08:55:25;;;;;;;;;;;;;;;36.27;29.18;101122.59;5098105;27;20010;-82
2022/09/09 08:57:51;;;;;;;;;;;;;;;36.17;30.16;101123.69;5115446;27;19942;-81
2022/09/09 09:00:17;;;;;;;;;;;;;;;36.67;29.59;101120.59;5115549;27;19967;-80
2022/09/09 09:02:46;;;;;;;;;;;;;;;36.20;30.10;101120.28;5133179;27;20267;-81
2022/09/09 09:05:33;;;;;;;;;;;;;;;35.89;30.34;101112.72;5115299;27;19915;-83
2022/09/09 09:08:17;;;;;;;;;;;;;;;36.94;28.32;101107.44;5133618;27;19911;-81
2022/09/09 09:10:48;;;;;;;;;;;;;;;37.10;28.30;101107.81;5133523;27;20006;-82
2022/09/09 09:13:26;;;;;;;;;;;;;;;36.86;28.29;101111.06;5114751;27;19972;-82
2022/09/09 09:15:56;;;;;;;;;;;;;;;35.75;30.18;101117.53;5133130;27;19954;-81
2022/09/09 09:18:21;;;;;;;;;;;;;;;37.73;27.51;101108.22;5114503;27;19911;-82
2022/09/09 09:20:51;;;;;;;;;;;;;;;39.15;25.45;101104.00;5133003;27;19972;-83
2022/09/09 09:23:24;;;;;;;;;;;;;;;39.17;25.34;101112.94;5115313;27;19912;-81
2022/09/09 09:25:51;;;;;;;;;;;;;;;38.81;25.55;101114.34;5133151;27;19919;-81
2022/09/09 09:28:17;;;;;;;;;;;;;;;38.22;26.60;101117.16;5114749;27;19911;-81
2022/09/09 09:30:45;;;;;;;;;;;;;;;37.41;27.56;101130.03;5114148;27;19990;-81
2022/09/09 09:33:23;;;;;;;;;;;;;;;37.65;27.32;101128.69;5114389;27;19959;-81
2022/09/09 09:35:49;;;;;;;;;;;;;;;38.02;26.59;101113.09;5132405;27;19918;-81
2022/09/09 09:38:24;;;;;;;;;;;;;;;37.25;28.03;101123.28;5114614;27;19912;-81
2022/09/09 09:40:57;;;;;;;;;;;;;;;38.56;26.32;101132.19;5114572;27;19941;-81
2022/09/09 09:43:27;;;;;;;;;;;;;;;37.22;27.25;101127.56;5132959;27;20034;-80
2022/09/09 09:45:52;;;;;;;;;;;;;;;38.39;26.28;101142.31;5114005;27;19973;-81
2022/09/09 09:48:17;;;;;;;;;;;;;;;38.47;26.02;101140.69;5132599;27;19912;-81
2022/09/09 09:50:50;;;;;;;;;;;;;;;39.14;25.16;101133.28;5132472;27;19960;-81
2022/09/09 09:53:23;;;;;;;;;;;;;;;39.83;24.71;101122.56;5132532;27;19911;-81
2022/09/09 09:56:16;;;;;;;;;;;;;;;39.54;24.88;101115.06;5132394;27;19911;-81
2022/09/09 09:58:44;;;;;;;;;;;;;;;39.83;24.06;101111.31;5127575;27;20338;-81
2022/09/09 10:01:22;;;;;;;;;;;;;;;39.21;25.19;101115.84;5133680;27;19984;-82
2022/09/09 10:04:13;;;;;;;;;;;;;;;38.97;25.29;101105.31;5135122;27;19915;-81
2022/09/09 10:06:39;;;;;;;;;;;;;;;38.92;25.30;101109.16;5114060;28;19918;-82
2022/09/09 10:09:25;;;;;;;;;;;;;;;38.20;26.32;101117.47;5113872;27;20415;-81
2022/09/09 10:11:51;;;;;;;;;;;;;;;38.93;25.49;101116.41;5131545;27;19912;-81
2022/09/09 10:14:21;;;;;;;;;;;;;;;38.99;25.35;101106.63;5132045;27;19954;-81
2022/09/09 10:16:56;;;;;;;;;;;;;;;38.67;25.49;101108.16;5113378;28;19911;-82
2022/09/09 10:19:32;;;;;;;;;;;;;;;36.05;29.65;101104.69;5131871;27;19911;-81
2022/09/09 10:22:09;;;;;;;;;;;;;;;36.75;28.30;101110.56;5132039;28;20350;-82
2022/09/09 10:24:53;;;;;;;;;;;;;;;35.79;29.63;101100.97;5131149;27;19911;-82
2022/09/09 10:27:37;;;;;;;;;;;;;;;36.38;29.27;101090.34;5131812;28;19911;-81
2022/09/09 10:30:14;;;;;;;;;;;;;;;36.64;28.83;101104.44;5131770;28;19939;-81
2022/09/09 10:32:50;;;;;;;;;;;;;;;36.42;29.54;101107.34;5113741;28;20011;-82
2022/09/09 10:35:33;;;;;;;;;;;;;;;36.48;29.16;101101.25;5131922;28;19907;-80
2022/09/09 10:37:58;;;;;;;;;;;;;;;35.69;30.60;101099.25;5113741;28;19919;-81
2022/09/09 10:40:34;;;;;;;;;;;;;;;37.10;28.60;101094.59;5131834;28;19980;-81
2022/09/09 10:43:06;;;;;;;;;;;;;;;37.51;27.76;101087.66;5131906;28;19991;-82
2022/09/09 10:45:34;;;;;;;;;;;;;;;36.22;29.77;101098.38;5113189;28;19921;-81
2022/09/09 10:48:30;;;;;;;;;;;;;;;35.78;30.74;101100.13;5131415;28;19922;-81
2022/09/09 10:51:19;;;;;;;;;;;;;;;34.69;32.34;101094.63;5110089;28;19919;-81
2022/09/09 10:53:51;;;;;;;;;;;;;;;34.63;32.40;101099.53;5101876;28;19911;-81
2022/09/09 10:56:18;;;;;;;;;;;;;;;33.90;33.13;101083.66;5096045;28;19911;-82
2022/09/09 10:58:49;;;;;;;;;;;;;;;33.89;33.69;101096.78;5113122;28;20409;-82
2022/09/09 11:01:17;;;;;;;;;;;;;;;33.36;34.28;101100.72;5131585;28;19911;-82
2022/09/09 11:03:43;;;;;;;;;;;;;;;34.36;33.34;101094.75;5131551;28;20292;-82
2022/09/09 11:06:21;;;;;;;;;;;;;;;34.55;32.64;101086.25;5096138;28;19916;-82
2022/09/09 11:08:47;;;;;;;;;;;;;;;34.48;32.72;101085.84;5113210;28;19966;-82
2022/09/09 11:11:27;;;;;;;;;;;;;;;33.66;34.09;101095.81;5131406;28;19951;-81
2022/09/09 11:13:54;;;;;;;;;;;;;;;33.30;34.88;101079.69;5131618;28;19911;-81
2022/09/09 11:16:25;;;;;;;;;;;;;;;32.96;35.48;101086.28;5131315;28;20053;-81
2022/09/09 11:18:50;;;;;;;;;;;;;;;32.10;36.79;101091.88;5131205;28;19954;-81
2022/09/09 11:21:18;;;;;;;;;;;;;;;31.34;38.75;101105.28;5112650;28;19951;-82
2022/09/09 11:23:45;;;;;;;;;;;;;;;31.04;39.46;101102.75;5131600;28;20281;-81
2022/09/09 11:26:30;;;;;;;;;;;;;;;31.04;39.50;101108.28;5113260;28;19915;-82
2022/09/09 11:29:03;;;;;;;;;;;;;;;30.85;40.14;101095.09;5113451;28;20328;-81
2022/09/09 11:31:32;;;;;;;;;;;;;;;30.17;41.68;101095.59;5113173;28;19997;-81
2022/09/09 11:34:08;;;;;;;;;;;;;;;29.69;42.57;101094.31;5131205;28;19919;-82
2022/09/09 11:36:39;;;;;;;;;;;;;;;29.29;43.39;101087.63;5115360;27;19945;-81
2022/09/09 11:39:07;;;;;;;;;;;;;;;28.73;44.79;101086.44;5135294;27;19915;-82
2022/09/09 11:41:36;;;;;;;;;;;;;;;29.08;44.13;101087.66;5135405;27;20014;-81
2022/09/09 11:44:05;;;;;;;;;;;;;;;28.41;46.04;101081.84;5116622;27;19971;-82
2022/09/09 11:46:35;;;;;;;;;;;;;;;28.15;46.60;101078.13;5116570;27;19939;-81
2022/09/09 11:49:04;;;;;;;;;;;;;;;28.15;47.17;101083.66;5116346;27;19911;-82
2022/09/09 11:51:30;;;;;;;;;;;;;;;27.28;49.49;101093.22;5116262;27;19912;-82
2022/09/09 11:54:02;;;;;;;;;;;;;;;27.44;49.70;101085.91;5134458;27;19936;-81
2022/09/09 11:56:31;;;;;;;;;;;;;;;27.62;48.85;101068.91;5134825;27;19915;-82
2022/09/09 11:58:58;;;;;;;;;;;;;;;27.87;48.51;101064.72;5138207;27;19919;-82
2022/09/09 12:01:28;;;;;;;;;;;;;;;27.84;48.71;101070.75;5120430;27;19911;-82
2022/09/09 12:04:08;;;;;;;;;;;;;;;27.97;47.87;101070.28;5124202;27;19918;-82
2022/09/09 12:06:33;;;;;;;;;;;;;;;28.15;47.71;101069.00;5137284;27;19911;-82
2022/09/09 12:09:14;;;;;;;;;;;;;;;27.43;49.60;101067.69;5116198;27;19911;-82
2022/09/09 12:11:39;;;;;;;;;;;;;;;27.55;49.12;101063.63;5136313;27;19918;-82
2022/09/09 12:14:18;;;;;;;;;;;;;;;27.30;49.30;101066.16;5117258;27;19997;-81
2022/09/09 12:16:43;;;;;;;;;;;;;;;27.32;49.78;101067.59;5119228;27;19918;-81
2022/09/09 12:19:08;;;;;;;;;;;;;;;26.93;51.37;101055.88;5137295;27;20013;-80
2022/09/09 12:21:38;;;;;;;;;;;;;;;26.64;51.65;101058.03;5135765;27;19922;-81
2022/09/09 12:24:04;;;;;;;;;;;;;;;27.07;50.86;101048.84;5134109;27;20402;-82
2022/09/09 12:26:29;;;;;;;;;;;;;;;26.67;51.65;101047.34;5134588;27;19968;-80
2022/09/09 12:29:00;;;;;;;;;;;;;;;26.99;49.91;101043.78;5133819;27;20292;-80
2022/09/09 12:31:25;;;;;;;;;;;;;;;26.87;50.10;101038.44;5133690;27;19918;-82
2022/09/09 12:33:52;;;;;;;;;;;;;;;26.58;50.52;101042.56;5133759;27;20002;-82
2022/09/09 12:36:38;;;;;;;;;;;;;;;26.53;50.20;101040.53;5133562;27;19911;-81
2022/09/09 12:39:16;;;;;;;;;;;;;;;26.31;51.77;101041.38;5133249;27;19918;-82
2022/09/09 12:41:50;;;;;;;;;;;;;;;26.51;51.26;101051.00;5115554;27;19907;-82
2022/09/09 12:44:15;;;;;;;;;;;;;;;26.59;51.10;101046.97;5133985;27;19950;-81